Observations

Aujourd'hui

  • Température

    Max: 0.6° à 00:02:54

    Moy: -0.8°

    Min: -1.9° à 04:50:07

 

  • Humidité

    Max: 98% à 04:50:00

    Min: 97% à 04:50:07

 

  • Précipitation accumulée

    Aujourd'hui: 0 mm

    Ce mois-ci: 14 mm

    Cette année: 53 mm



HeureTemperaturePoint de roséeHumiditéDir. VentVitesseRafalesPressionPrecip.Precip. Accum.
04:49 -1.9°C -2.2°C 98% 0 km/h 0 km/h 1014 hPa 0 mm/hr 0 mm
04:44 -1.9°C -2.2°C 98% 0 km/h 0 km/h 1014 hPa 0 mm/hr 0 mm
04:39 -1.9°C -2.2°C 98% 0 km/h 0 km/h 1014 hPa 0 mm/hr 0 mm
04:34 -1.9°C -2.2°C 98% 0 km/h 0 km/h 1014 hPa 0 mm/hr 0 mm
04:29 -1.9°C -2.2°C 98% 0 km/h 0 km/h 1014 hPa 0 mm/hr 0 mm
04:24 -1.8°C -2.1°C 98% 0 km/h 0 km/h 1014 hPa 0 mm/hr 0 mm
04:19 -1.8°C -2.1°C 98% 0 km/h 0 km/h 1014 hPa 0 mm/hr 0 mm
04:14 -1.7°C -2°C 98% 0 km/h 0 km/h 1014 hPa 0 mm/hr 0 mm
04:09 -1.6°C -1.9°C 98% 0 km/h 0 km/h 1014 hPa 0 mm/hr 0 mm
04:04 -1.6°C -1.9°C 98% 0 km/h 0 km/h 1014 hPa 0 mm/hr 0 mm
03:59 -1.5°C -1.8°C 98% 0 km/h 0 km/h 1014 hPa 0 mm/hr 0 mm
03:54 -1.5°C -1.8°C 98% 0 km/h 0 km/h 1014 hPa 0 mm/hr 0 mm
03:49 -1.4°C -1.7°C 98% 0 km/h 0 km/h 1014 hPa 0 mm/hr 0 mm
03:44 -1.4°C -1.7°C 98% 0 km/h 0 km/h 1014 hPa 0 mm/hr 0 mm
03:39 -1.3°C -1.6°C 98% 0 km/h 0 km/h 1014 hPa 0 mm/hr 0 mm
03:34 -1.3°C -1.6°C 98% 0 km/h 0 km/h 1014 hPa 0 mm/hr 0 mm
03:29 -1.3°C -1.6°C 98% 0 km/h 0 km/h 1014 hPa 0 mm/hr 0 mm
03:24 -1.3°C -1.6°C 98% 0 km/h 0 km/h 1014 hPa 0 mm/hr 0 mm
03:19 -1.3°C -1.6°C 98% 0 km/h 0 km/h 1014 hPa 0 mm/hr 0 mm
03:14 -1.3°C -1.6°C 98% 0 km/h 0 km/h 1014 hPa 0 mm/hr 0 mm
03:09 -1.3°C -1.6°C 98% 0 km/h 0 km/h 1014 hPa 0 mm/hr 0 mm
03:04 -1.3°C -1.6°C 98% 0 km/h 0 km/h 1014 hPa 0 mm/hr 0 mm
02:59 -1.3°C -1.6°C 98% 0 km/h 0 km/h 1014 hPa 0 mm/hr 0 mm
02:54 -1.3°C -1.6°C 98% 0 km/h 0 km/h 1014 hPa 0 mm/hr 0 mm
02:49 -1.2°C -1.5°C 98% 0 km/h 0 km/h 1014 hPa 0 mm/hr 0 mm
02:44 -1.2°C -1.5°C 98% 0 km/h 0 km/h 1014 hPa 0 mm/hr 0 mm
02:39 -1.2°C -1.5°C 98% 0 km/h 0 km/h 1014 hPa 0 mm/hr 0 mm
02:34 -1.1°C -1.4°C 98% 0 km/h 0 km/h 1014 hPa 0 mm/hr 0 mm
02:29 -1°C -1.3°C 98% 0 km/h 0 km/h 1013 hPa 0 mm/hr 0 mm
02:24 -1°C -1.3°C 98% 0 km/h 0 km/h 1013 hPa 0 mm/hr 0 mm
02:19 -1°C -1.3°C 98% 0 km/h 0 km/h 1013 hPa 0 mm/hr 0 mm
02:14 -0.9°C -1.3°C 97% 0 km/h 0 km/h 1014 hPa 0 mm/hr 0 mm
02:09 -0.9°C -1.3°C 97% 0 km/h 0 km/h 1014 hPa 0 mm/hr 0 mm
02:04 -0.8°C -1.1°C 98% 0 km/h 0 km/h 1014 hPa 0 mm/hr 0 mm
01:59 -0.7°C -1°C 98% 0 km/h 0 km/h 1014 hPa 0 mm/hr 0 mm
01:54 -0.6°C -0.9°C 98% 0 km/h 0 km/h 1014 hPa 0 mm/hr 0 mm
01:49 -0.5°C -0.8°C 98% 0 km/h 0 km/h 1014 hPa 0 mm/hr 0 mm
01:44 -0.5°C -0.8°C 98% 0 km/h 0 km/h 1014 hPa 0 mm/hr 0 mm
01:39 -0.4°C -0.7°C 98% 0 km/h 0 km/h 1014 hPa 0 mm/hr 0 mm
01:34 -0.3°C -0.6°C 98% 0 km/h 0 km/h 1014 hPa 0 mm/hr 0 mm
01:29 -0.2°C -0.5°C 98% 0 km/h 0 km/h 1014 hPa 0 mm/hr 0 mm
01:24 -0.2°C -0.5°C 98% 0 km/h 0 km/h 1014 hPa 0 mm/hr 0 mm
01:19 -0.2°C -0.5°C 98% 0 km/h 0 km/h 1014 hPa 0 mm/hr 0 mm
01:14 -0.2°C -0.5°C 98% 0 km/h 0 km/h 1014 hPa 0 mm/hr 0 mm
01:09 -0.1°C -0.4°C 98% 0 km/h 0 km/h 1014 hPa 0 mm/hr 0 mm
01:04 -0.1°C -0.4°C 98% 0 km/h 0 km/h 1014 hPa 0 mm/hr 0 mm
00:59 0°C -0.3°C 98% 0 km/h 0 km/h 1014 hPa 0 mm/hr 0 mm
00:54 0.1°C -0.2°C 98% 0 km/h 0 km/h 1014 hPa 0 mm/hr 0 mm
00:49 0.1°C -0.2°C 98% 0 km/h 0 km/h 1014 hPa 0 mm/hr 0 mm
00:44 0.1°C -0.2°C 98% 0 km/h 0 km/h 1014 hPa 0 mm/hr 0 mm
00:39 0.2°C -0.1°C 98% 0 km/h 0 km/h 1014 hPa 0 mm/hr 0 mm
00:34 0.3°C 0°C 98% 0 km/h 0 km/h 1014 hPa 0 mm/hr 0 mm
00:29 0.3°C 0°C 98% 0 km/h 0 km/h 1014 hPa 0 mm/hr 0 mm
00:24 0.3°C 0°C 98% 0 km/h 0 km/h 1014 hPa 0 mm/hr 0 mm
00:19 0.4°C 0.1°C 98% 0 km/h 0 km/h 1014 hPa 0 mm/hr 0 mm
00:14 0.4°C 0.1°C 98% 0 km/h 0 km/h 1013 hPa 0 mm/hr 0 mm
00:09 0.4°C 0.1°C 98% 0 km/h 0 km/h 1013 hPa 0 mm/hr 0 mm
00:04 0.5°C 0.2°C 98% 0 km/h 0 km/h 1013 hPa 0 mm/hr 0 mm